createdAt,value
2017-06-02T00:01:01.143Z,3.64
2017-06-02T00:03:43.165Z,4.22
2017-06-02T00:06:10.308Z,4.42
2017-06-02T00:08:37.398Z,3.98
2017-06-02T00:11:04.552Z,4.42
2017-06-02T00:13:31.673Z,4.02
2017-06-02T00:15:58.776Z,4.12
2017-06-02T00:18:40.880Z,4.22
2017-06-02T00:21:07.975Z,3.86
2017-06-02T00:23:35.234Z,4.44
2017-06-02T00:26:02.698Z,3.58
2017-06-02T00:28:31.315Z,4.50
2017-06-02T00:31:00.057Z,4.12
2017-06-02T00:36:28.128Z,5.42
2017-06-02T00:38:55.502Z,4.64
2017-06-02T00:44:25.326Z,4.38
2017-06-02T00:46:53.089Z,4.98
2017-06-02T00:49:35.843Z,4.90
2017-06-02T00:52:13.910Z,4.62
2017-06-02T00:54:41.471Z,5.10
2017-06-02T00:57:09.537Z,5.10
2017-06-02T01:02:38.216Z,4.44
2017-06-02T01:05:06.538Z,4.48
2017-06-02T01:07:35.060Z,4.08
2017-06-02T01:10:17.443Z,4.38
2017-06-02T01:13:12.661Z,4.08
2017-06-02T01:15:40.113Z,4.90
2017-06-02T01:18:08.440Z,3.70
2017-06-02T01:21:00.500Z,4.28
2017-06-02T01:23:28.531Z,4.48
2017-06-02T01:25:56.655Z,5.06
2017-06-02T01:37:25.825Z,4.46
2017-06-02T01:42:35.188Z,5.18
2017-06-02T01:45:02.385Z,5.44
2017-06-02T01:47:30.082Z,4.46
2017-06-02T01:52:58.306Z,5.42
2017-06-02T01:58:26.417Z,4.64
2017-06-02T02:00:53.716Z,4.58
2017-06-02T02:03:20.892Z,4.68
2017-06-02T02:05:48.186Z,4.80
2017-06-02T02:08:16.199Z,5.00
2017-06-02T02:10:43.508Z,5.28
2017-06-02T02:13:11.483Z,4.80
2017-06-02T02:15:38.801Z,4.78
2017-06-02T02:18:06.017Z,4.82
2017-06-02T02:20:55.084Z,4.64
2017-06-02T02:23:22.868Z,4.86
2017-06-02T02:25:50.961Z,4.90
2017-06-02T02:28:18.240Z,5.88
2017-06-02T02:30:59.412Z,5.28
2017-06-02T02:33:41.706Z,5.28
2017-06-02T02:36:08.868Z,5.28
2017-06-02T02:44:39.288Z,4.94
2017-06-02T02:47:06.666Z,5.56
2017-06-02T02:49:34.569Z,5.42
2017-06-02T02:52:01.806Z,5.58
2017-06-02T02:54:29.067Z,5.44
2017-06-02T02:56:56.704Z,5.50
2017-06-02T02:59:24.161Z,4.98
2017-06-02T03:02:14.183Z,5.58
2017-06-02T03:05:12.566Z,5.20
2017-06-02T03:10:40.786Z,5.94
2017-06-02T03:13:14.369Z,5.02
2017-06-02T03:15:41.688Z,5.30
2017-06-02T03:18:10.318Z,5.20
2017-06-02T03:20:38.534Z,5.78
2017-06-02T03:23:05.902Z,5.48
2017-06-02T03:25:33.548Z,5.50
2017-06-02T03:31:02.275Z,5.12
2017-06-02T03:33:29.603Z,4.84
2017-06-02T03:35:58.220Z,5.02
2017-06-02T03:38:25.461Z,5.66
2017-06-02T03:41:00.147Z,4.94
2017-06-02T03:43:56.384Z,5.38
2017-06-02T03:49:25.876Z,4.28
2017-06-02T03:51:54.046Z,5.06
2017-06-02T03:54:21.290Z,5.60
2017-06-02T03:56:49.361Z,5.50
2017-06-02T03:59:16.750Z,6.28
2017-06-02T04:04:45.171Z,4.48
2017-06-02T04:10:07.795Z,4.94
2017-06-02T04:12:35.127Z,4.48
2017-06-02T04:15:02.513Z,6.16
2017-06-02T04:17:30.470Z,4.80
2017-06-02T04:19:58.111Z,4.90
2017-06-02T04:22:25.587Z,4.92
2017-06-02T04:24:53.392Z,4.26
2017-06-02T04:30:21.775Z,9.04
2017-06-02T04:32:49.710Z,4.62
2017-06-02T04:35:17.026Z,4.52
2017-06-02T04:40:44.534Z,4.06
2017-06-02T04:43:13.466Z,7.84
2017-06-02T04:45:41.350Z,3.80
2017-06-02T04:48:08.654Z,5.52
2017-06-02T04:51:02.651Z,5.22
2017-06-02T04:53:30.426Z,8.08
2017-06-02T05:08:12.663Z,6.98
2017-06-02T05:10:40.104Z,6.10
2017-06-02T05:13:07.283Z,4.78
2017-06-02T05:15:34.524Z,5.92
2017-06-02T05:18:01.613Z,6.30
2017-06-02T05:20:28.682Z,5.78
2017-06-02T05:22:56.645Z,5.80
2017-06-02T05:25:38.739Z,5.64
2017-06-02T05:28:05.922Z,6.56
2017-06-02T05:30:32.990Z,5.58
2017-06-02T05:33:13.373Z,6.50
2017-06-02T05:35:40.451Z,4.70
2017-06-02T05:38:14.324Z,5.08
2017-06-02T05:40:42.069Z,4.46
2017-06-02T05:43:09.148Z,5.16
2017-06-02T05:45:36.295Z,4.68
2017-06-02T05:48:14.141Z,3.70
2017-06-02T05:50:41.488Z,4.56
2017-06-02T05:53:15.062Z,4.50
2017-06-02T05:56:13.654Z,4.96
2017-06-02T05:58:40.733Z,5.68
2017-06-02T06:01:07.829Z,4.18
2017-06-02T06:03:34.936Z,4.38
2017-06-02T06:06:12.563Z,5.24
2017-06-02T06:08:39.695Z,4.44
2017-06-02T06:11:06.884Z,4.72
2017-06-02T06:16:35.309Z,4.56
2017-06-02T06:19:12.933Z,3.78
2017-06-02T06:25:12.461Z,4.50
2017-06-02T06:31:00.988Z,3.98
2017-06-02T06:33:28.072Z,3.52
2017-06-02T06:39:12.984Z,4.16
2017-06-02T06:41:40.106Z,2.98
2017-06-02T06:44:13.954Z,3.74
2017-06-02T06:46:41.038Z,4.34
2017-06-02T06:49:14.718Z,4.38
2017-06-02T06:51:41.819Z,3.78
2017-06-02T06:54:08.943Z,4.34
2017-06-02T06:56:36.070Z,3.92
2017-06-02T06:59:03.199Z,4.70
2017-06-02T07:01:30.303Z,3.44
2017-06-02T07:03:57.408Z,3.56
2017-06-02T07:06:24.537Z,3.48
2017-06-02T07:08:51.650Z,5.46
2017-06-02T07:11:18.766Z,4.74
2017-06-02T07:13:45.876Z,4.22
2017-06-02T07:16:12.981Z,3.94
2017-06-02T07:18:40.128Z,2.96
2017-06-02T07:21:07.206Z,4.68
2017-06-02T07:26:35.974Z,3.72
2017-06-02T07:29:03.066Z,4.06
2017-06-02T07:34:15.033Z,3.28
2017-06-02T07:36:42.183Z,4.08
2017-06-02T07:39:09.421Z,3.50
2017-06-02T07:41:36.489Z,3.40
2017-06-02T07:44:03.636Z,3.60
2017-06-02T07:46:30.727Z,3.72
2017-06-02T07:48:57.912Z,3.48
2017-06-02T07:51:25.031Z,3.50
2017-06-02T07:53:52.131Z,4.86
2017-06-02T07:56:19.216Z,3.46
2017-06-02T08:01:47.056Z,4.56
2017-06-02T08:04:14.165Z,3.52
2017-06-02T08:06:41.288Z,3.50
2017-06-02T08:09:15.422Z,3.98
2017-06-02T08:11:42.510Z,3.42
2017-06-02T08:14:10.411Z,2.70
2017-06-02T08:16:37.544Z,2.48
2017-06-02T08:19:04.661Z,2.46
2017-06-02T08:21:31.904Z,3.18
2017-06-02T08:23:59.035Z,3.02
2017-06-02T08:26:26.132Z,2.40
2017-06-02T08:28:53.209Z,2.78
2017-06-02T08:34:13.659Z,2.40
2017-06-02T08:36:40.761Z,2.46
2017-06-02T08:39:07.848Z,2.18
2017-06-02T08:44:40.701Z,2.08
2017-06-02T08:47:08.522Z,2.02
2017-06-02T08:49:35.629Z,2.48
2017-06-02T08:52:02.768Z,2.52
2017-06-02T08:54:29.848Z,2.58
2017-06-02T08:56:56.983Z,2.58
2017-06-02T08:59:24.338Z,2.98
2017-06-02T09:02:12.715Z,2.60
2017-06-02T09:04:39.861Z,2.44
2017-06-02T09:07:06.936Z,2.88
2017-06-02T09:12:35.820Z,2.20
2017-06-02T09:15:03.072Z,2.40
2017-06-02T09:17:30.324Z,2.22
2017-06-02T09:20:13.287Z,2.30
2017-06-02T09:22:40.400Z,2.58
2017-06-02T09:25:07.500Z,2.60
2017-06-02T09:27:34.640Z,2.62
2017-06-02T09:30:15.091Z,2.42
2017-06-02T09:32:42.243Z,2.10
2017-06-02T09:35:13.048Z,2.24
2017-06-02T09:37:40.186Z,2.00
2017-06-02T09:40:08.034Z,1.82
2017-06-02T09:42:35.198Z,2.02
2017-06-02T09:45:02.481Z,2.52
2017-06-02T09:47:29.617Z,2.54
2017-06-02T09:50:12.672Z,2.02
2017-06-02T09:52:39.871Z,2.04
2017-06-02T09:55:07.124Z,2.50
2017-06-02T10:00:50.858Z,2.26
2017-06-02T10:03:17.955Z,2.12
2017-06-02T10:05:45.050Z,2.66
2017-06-02T10:08:12.194Z,2.48
2017-06-02T10:10:39.376Z,2.48
2017-06-02T10:13:06.484Z,2.14
2017-06-02T10:15:33.777Z,1.70
2017-06-02T10:18:14.729Z,2.80
2017-06-02T10:20:42.001Z,2.20
2017-06-02T10:23:09.252Z,2.26
2017-06-02T10:25:36.509Z,2.10
2017-06-02T10:28:03.659Z,2.54
2017-06-02T10:30:53.071Z,2.48
2017-06-02T10:33:20.218Z,2.40
2017-06-02T10:38:48.525Z,2.12
2017-06-02T10:41:19.405Z,2.18
2017-06-02T10:43:46.484Z,2.16
2017-06-02T10:46:13.639Z,2.26
2017-06-02T10:48:42.538Z,2.72
2017-06-02T10:51:09.744Z,1.90
2017-06-02T10:53:38.516Z,2.78
2017-06-02T10:56:13.262Z,1.86
2017-06-02T11:01:41.304Z,2.72
2017-06-02T11:04:10.474Z,1.94
2017-06-02T11:06:37.558Z,1.72
2017-06-02T11:09:04.741Z,1.70
2017-06-02T11:11:31.884Z,2.34
2017-06-02T11:13:58.970Z,1.84
2017-06-02T11:16:26.165Z,1.60
2017-06-02T11:19:13.770Z,3.46
2017-06-02T11:25:13.011Z,2.04
2017-06-02T11:30:41.306Z,1.88
2017-06-02T11:45:11.711Z,1.68
2017-06-02T11:47:38.888Z,1.82
2017-06-02T12:01:59.184Z,2.92
2017-06-02T12:22:42.269Z,2.10
2017-06-02T12:25:15.721Z,1.84
2017-06-02T12:30:43.895Z,1.82
2017-06-02T12:33:14.435Z,2.00
2017-06-02T12:35:41.518Z,1.88
2017-06-02T12:38:08.632Z,2.02
2017-06-02T12:40:35.709Z,2.04
2017-06-02T12:43:13.152Z,2.04
2017-06-02T12:45:40.231Z,2.28
2017-06-02T12:48:07.420Z,2.00
2017-06-02T12:50:34.537Z,3.80
2017-06-02T12:53:01.630Z,2.02
2017-06-02T12:55:28.719Z,1.78
2017-06-02T12:57:55.854Z,2.02
2017-06-02T13:00:22.930Z,2.00
2017-06-02T13:02:50.005Z,1.90
2017-06-02T13:08:23.652Z,1.90
2017-06-02T13:34:30.682Z,1.94
2017-06-02T13:37:06.299Z,2.84
2017-06-02T13:46:06.008Z,1.64
2017-06-02T13:51:34.476Z,2.00
2017-06-02T14:00:27.775Z,2.00
2017-06-02T14:09:07.047Z,1.68
2017-06-02T14:11:34.217Z,2.12
2017-06-02T14:14:07.821Z,2.00
2017-06-02T14:20:06.982Z,2.26
2017-06-02T14:25:35.082Z,2.12
2017-06-02T14:31:06.571Z,2.02
2017-06-02T14:40:07.119Z,2.12
2017-06-02T14:42:34.206Z,2.04
2017-06-02T14:45:07.365Z,1.98
2017-06-02T14:51:06.669Z,2.50
2017-06-02T14:53:34.385Z,1.86
2017-06-02T14:59:08.766Z,1.74
2017-06-02T15:01:35.845Z,1.78
2017-06-02T15:04:09.723Z,2.12
2017-06-02T15:10:06.085Z,2.44
2017-06-02T15:19:07.376Z,1.94
2017-06-02T15:21:34.476Z,2.52
2017-06-02T15:27:06.440Z,1.92
2017-06-02T15:29:33.526Z,2.18
2017-06-02T15:32:08.103Z,2.50
2017-06-02T15:34:35.184Z,1.92
2017-06-02T15:37:15.879Z,2.32
2017-06-02T15:40:07.384Z,2.60
2017-06-02T15:42:34.544Z,2.12
2017-06-02T15:45:08.318Z,2.82
2017-06-02T15:47:35.463Z,2.10
2017-06-02T15:50:02.571Z,2.80
2017-06-02T16:10:33.794Z,2.34
2017-06-02T16:13:14.201Z,2.10
2017-06-02T16:15:41.374Z,2.40
2017-06-02T16:18:08.461Z,2.84
2017-06-02T16:20:35.557Z,3.10
2017-06-02T16:23:09.410Z,2.76
2017-06-02T16:25:36.491Z,2.86
2017-06-02T16:28:03.661Z,2.20
2017-06-02T16:30:45.812Z,2.08
2017-06-02T16:33:12.915Z,2.50
2017-06-02T16:35:40.000Z,3.02
2017-06-02T16:38:07.152Z,2.88
2017-06-02T16:40:54.598Z,2.58
2017-06-02T16:43:21.710Z,2.70
2017-06-02T16:45:48.796Z,2.92
2017-06-02T16:48:30.881Z,2.70
2017-06-02T16:51:06.550Z,2.30
2017-06-02T16:53:33.701Z,2.34
2017-06-02T16:56:00.769Z,2.60
2017-06-02T16:58:27.878Z,2.78
2017-06-02T17:00:55.133Z,2.32
2017-06-02T17:03:22.197Z,2.84
2017-06-02T17:05:49.285Z,2.52
2017-06-02T17:08:16.550Z,2.14
2017-06-02T17:10:54.018Z,2.50
2017-06-02T17:13:21.190Z,2.36
2017-06-02T17:16:05.768Z,2.28
2017-06-02T17:21:34.152Z,2.80
2017-06-02T17:24:07.444Z,2.66
2017-06-02T17:27:06.393Z,2.60
2017-06-02T17:29:33.538Z,2.28
2017-06-02T17:32:07.466Z,2.48
2017-06-02T17:35:05.891Z,2.52
2017-06-02T17:37:33.048Z,2.60
2017-06-02T17:40:06.819Z,2.62
2017-06-02T17:43:05.591Z,2.30
2017-06-02T17:45:32.661Z,2.54
2017-06-02T17:48:06.684Z,2.98
2017-06-02T17:50:53.929Z,2.28
2017-06-02T17:53:21.047Z,2.70
2017-06-02T17:56:08.868Z,2.54
2017-06-02T17:59:07.538Z,1.90
2017-06-02T18:01:34.657Z,3.02
2017-06-02T18:04:07.998Z,2.68
2017-06-02T18:06:43.318Z,2.30
2017-06-02T18:09:10.441Z,2.78
2017-06-02T18:11:37.518Z,1.94
2017-06-02T18:14:06.606Z,2.60
2017-06-02T18:19:34.454Z,2.42
2017-06-02T18:22:07.976Z,3.24
2017-06-02T18:24:35.117Z,1.90
2017-06-02T18:27:02.290Z,2.58
2017-06-02T18:29:30.005Z,2.50
2017-06-02T18:31:57.360Z,1.98
2017-06-02T18:34:24.444Z,2.22
2017-06-02T18:36:51.535Z,2.00
2017-06-02T18:39:18.679Z,2.04
2017-06-02T18:41:45.756Z,3.42
2017-06-02T18:44:12.832Z,2.20
2017-06-02T18:46:39.944Z,1.78
2017-06-02T18:49:07.028Z,2.42
2017-06-02T18:54:35.448Z,2.78
2017-06-02T18:57:09.429Z,2.94
2017-06-02T19:00:06.073Z,2.54
2017-06-02T19:02:33.212Z,2.66
2017-06-02T19:05:00.289Z,2.64
2017-06-02T19:07:27.565Z,2.80
2017-06-02T19:09:54.647Z,2.94
2017-06-02T19:12:21.738Z,3.18
2017-06-02T19:14:48.864Z,3.14
2017-06-02T19:17:15.933Z,3.54
2017-06-02T19:20:14.620Z,2.64
2017-06-02T19:22:41.690Z,3.20
2017-06-02T19:25:08.771Z,3.10
2017-06-02T19:27:35.963Z,3.10
2017-06-02T19:30:03.113Z,3.10
2017-06-02T19:32:30.250Z,3.46
2017-06-02T19:34:57.394Z,3.36
2017-06-02T19:37:24.483Z,3.02
2017-06-02T19:39:51.564Z,3.32
2017-06-02T19:42:18.681Z,3.80
2017-06-02T19:44:45.784Z,2.90
2017-06-02T19:47:12.880Z,3.16
2017-06-02T19:49:40.067Z,3.34
2017-06-02T19:52:13.752Z,4.62
2017-06-02T19:54:41.461Z,3.32
2017-06-02T19:57:09.276Z,3.62
2017-06-02T19:59:36.394Z,3.28
2017-06-02T20:02:03.482Z,3.40
2017-06-02T20:07:31.426Z,4.68
2017-06-02T20:09:58.521Z,3.86
2017-06-02T20:12:25.717Z,4.44
2017-06-02T20:14:52.812Z,5.10
2017-06-02T20:17:19.942Z,3.58
2017-06-02T20:20:14.730Z,4.42
2017-06-02T20:22:41.862Z,4.24
2017-06-02T20:25:08.941Z,4.18
2017-06-02T20:27:36.134Z,3.70
2017-06-02T20:30:03.230Z,3.70
2017-06-02T20:32:30.578Z,3.34
2017-06-02T20:35:13.811Z,4.46
2017-06-02T20:37:40.904Z,3.62
2017-06-02T20:40:08.006Z,2.98
2017-06-02T20:42:35.136Z,3.48
2017-06-02T20:45:02.236Z,3.62
2017-06-02T20:47:29.320Z,3.64
2017-06-02T20:50:14.158Z,3.06
2017-06-02T20:55:42.183Z,3.90
2017-06-02T20:58:09.285Z,3.20
2017-06-02T21:00:36.382Z,3.10
2017-06-02T21:03:03.758Z,3.36
2017-06-02T21:05:30.838Z,3.38
2017-06-02T21:07:57.918Z,3.94
2017-06-02T21:10:25.040Z,3.54
2017-06-02T21:12:52.150Z,3.96
2017-06-02T21:15:19.238Z,4.88
2017-06-02T21:17:46.361Z,7.50
2017-06-02T21:20:13.445Z,4.00
2017-06-02T21:22:40.526Z,6.00
2017-06-02T21:25:07.673Z,9.10
2017-06-02T21:30:39.182Z,3.98
2017-06-02T21:33:06.512Z,3.82
2017-06-02T21:35:33.595Z,3.90
2017-06-02T21:38:00.747Z,4.58
2017-06-02T21:40:27.836Z,4.00
2017-06-02T21:42:54.926Z,3.82
2017-06-02T21:45:22.038Z,4.40
2017-06-02T21:47:49.148Z,5.40
2017-06-02T21:50:16.236Z,4.26
2017-06-02T21:53:14.978Z,4.20
2017-06-02T21:55:42.057Z,4.26
2017-06-02T21:58:16.034Z,6.84
2017-06-02T22:00:43.128Z,5.02
2017-06-02T22:05:51.364Z,4.14
2017-06-02T22:10:51.310Z,4.70
2017-06-02T22:13:18.407Z,3.80
2017-06-02T22:15:45.495Z,3.50
2017-06-02T22:18:12.625Z,3.92
2017-06-02T22:20:54.638Z,3.90
2017-06-02T22:26:23.413Z,4.60
2017-06-02T22:28:50.508Z,4.16
2017-06-02T22:31:17.612Z,4.08
2017-06-02T22:33:45.011Z,4.34
2017-06-02T22:36:12.111Z,4.62
2017-06-02T22:38:39.198Z,4.00
2017-06-02T22:46:40.858Z,3.94
2017-06-02T22:49:07.938Z,3.76
2017-06-02T22:51:35.031Z,4.10
2017-06-02T22:54:15.375Z,3.54
2017-06-02T22:57:13.912Z,4.02
2017-06-02T22:59:41.045Z,3.36
2017-06-02T23:02:15.556Z,3.62
2017-06-02T23:05:14.553Z,3.88
2017-06-02T23:07:41.659Z,3.66
2017-06-02T23:10:15.669Z,4.72
2017-06-02T23:12:42.759Z,4.08
2017-06-02T23:15:16.806Z,4.26
2017-06-02T23:17:43.892Z,4.66
2017-06-02T23:20:25.967Z,4.32
2017-06-02T23:23:13.903Z,4.38
2017-06-02T23:25:41.033Z,4.46
2017-06-02T23:28:15.046Z,4.20
2017-06-02T23:30:42.180Z,4.50
2017-06-02T23:33:15.646Z,5.12
2017-06-02T23:36:14.338Z,4.08
2017-06-02T23:38:56.537Z,3.80
2017-06-02T23:41:23.835Z,3.60
2017-06-02T23:44:15.038Z,3.40
2017-06-02T23:46:42.203Z,3.84
2017-06-02T23:49:09.265Z,4.18
2017-06-02T23:51:36.338Z,3.66
2017-06-02T23:54:03.459Z,3.40
2017-06-02T23:56:30.548Z,3.98
2017-06-02T23:58:57.658Z,4.24
